Beernem, Belgium
Current Conditions -  °F | °C
As of 2:20 AM on Tuesday 27 Jan 2015 (Local Time) from EBOS Reporting Station
Scattered Clouds Scattered Clouds  
Wind Chill: 35°   Ceiling: Unl
Heat Index: 41°   Visibility: 6mi
Dew Point: 37°   Wind: 10mph
Humidity: 87%   Direction: 320°NW
Pressure: 30.27"   Gusts: NA
Location:  51.14°N, 3.34°E
Report Text: EBOS 270120Z 32009KT 9999 SCT020 05/03 Q1025 NOSIG
Loading
Personal Weather Stations






























Interactive Weather Map New forecast layout! Learn more

10-Day Weather Forecast

Advertisements
Track Severe Weather on mobile